| time (UTC) | temp C | wind direction | speed KPH | gust KPH | rain 1hr cm | rain 24hr cm | rain mn cm | humidity % | barometer mb |
| 20260503223004 | 26 | 85 | 1.6 | 6.4 | 0.00 | 0.00 | 0.00 | 52 | 1010.5 |
| 20260503222004 | 26 | 121 | 1.6 | 9.7 | 0.00 | 0.00 | 0.00 | 49 | 1010.5 |
| 20260503220004 | 26 | 17 | 3.2 | 14.5 | 0.00 | 0.00 | 0.00 | 48 | 1010.6 |
| 20260503215005 | 26 | 18 | 1.6 | 9.7 | 0.00 | 0.00 | 0.00 | 44 | 1010.8 |
| 20260503214004 | 26 | 286 | 3.2 | 12.9 | 0.00 | 0.00 | 0.00 | 45 | 1010.8 |
| 20260503213004 | 26 | 283 | 3.2 | 9.7 | 0.00 | 0.00 | 0.00 | 45 | 1010.9 |
| 20260503212004 | 26 | 263 | 1.6 | 9.7 | 0.00 | 0.00 | 0.00 | 47 | 1011.2 |
| 20260503210005 | 25 | 163 | 1.6 | 6.4 | 0.00 | 0.00 | 0.00 | 51 | 1011.2 |
| 20260503205004 | 25 | 350 | 3.2 | 14.5 | 0.00 | 0.00 | 0.00 | 52 | 1011.4 |
| 20260503204005 | 25 | 359 | 3.2 | 9.7 | 0.00 | 0.00 | 0.00 | 47 | 1011.6 |
| 20260503202004 | 24 | 285 | 4.8 | 16.1 | 0.00 | 0.00 | 0.00 | 50 | 1011.8 |
| 20260503201004 | 25 | 320 | 3.2 | 11.3 | 0.00 | 0.00 | 0.00 | 49 | 1011.8 |
| 20260503200004 | 25 | 267 | 1.6 | 9.7 | 0.00 | 0.00 | 0.00 | 51 | 1011.9 |
| 20260503195004 | 24 | 281 | 3.2 | 12.9 | 0.00 | 0.00 | 0.00 | 56 | 1012.0 |
| 20260503194004 | 23 | 298 | 3.2 | 14.5 | 0.00 | 0.00 | 0.00 | 54 | 1012.2 |
| 20260503193004 | 23 | 281 | 3.2 | 14.5 | 0.00 | 0.00 | 0.00 | 53 | 1012.2 |
| 20260503192004 | 23 | 333 | 3.2 | 14.5 | 0.00 | 0.00 | 0.00 | 55 | 1012.3 |
| 20260503190005 | 23 | 282 | 3.2 | 17.7 | 0.00 | 0.00 | 0.00 | 55 | 1012.6 |
| 20260503185004 | 22 | 280 | 3.2 | 9.7 | 0.00 | 0.00 | 0.00 | 57 | 1012.7 |
| 20260503183004 | 22 | 278 | 4.8 | 12.9 | 0.00 | 0.00 | 0.00 | 60 | 1013.0 |
| 20260503181004 | 22 | 270 | 3.2 | 12.9 | 0.00 | 0.00 | 0.00 | 63 | 1013.2 |
| 20260503180004 | 22 | 282 | 4.8 | 16.1 | 0.00 | 0.00 | 0.00 | 60 | 1013.2 |
| 20260503175004 | 22 | 123 | 1.6 | 9.7 | 0.00 | 0.00 | 0.00 | 61 | 1013.2 |
| 20260503173004 | 21 | 312 | 3.2 | 8.0 | 0.00 | 0.00 | 0.00 | 63 | 1013.2 |
| 20260503171005 | 21 | 89 | 1.6 | 8.0 | 0.00 | 0.00 | 0.00 | 62 | 1013.3 |
| 20260503054004 | 15 | 0 | 0.0 | 0.0 | 0.00 | 0.00 | 0.00 | 72 | 1013.3 |
| 20260503053004 | 16 | 0 | 0.0 | 0.0 | 0.00 | 0.00 | 0.00 | 69 | 1013.2 |
| 20260503051004 | 16 | 32 | 0.0 | 1.6 | 0.00 | 0.00 | 0.00 | 67 | 1013.2 |
| 20260503050003 | 17 | 28 | 0.0 | 3.2 | 0.00 | 0.00 | 0.00 | 66 | 1013.2 |
| 20260503045003 | 17 | 353 | 0.0 | 3.2 | 0.00 | 0.00 | 0.00 | 65 | 1013.2 |
| 20260503044004 | 17 | 326 | 0.0 | 4.8 | 0.00 | 0.00 | 0.00 | 63 | 1013.0 |
| 20260503043004 | 17 | 186 | 0.0 | 3.2 | 0.00 | 0.00 | 0.00 | 63 | 1013.1 |
| 20260503042004 | 18 | 76 | 0.0 | 3.2 | 0.00 | 0.00 | 0.00 | 62 | 1013.0 |
| 20260503041004 | 18 | 250 | 1.6 | 8.0 | 0.00 | 0.00 | 0.00 | 60 | 1012.9 |
| 20260503040004 | 18 | 236 | 0.0 | 4.8 | 0.00 | 0.00 | 0.00 | 59 | 1012.8 |
| 20260503034004 | 18 | 258 | 1.6 | 14.5 | 0.00 | 0.00 | 0.00 | 59 | 1012.6 |
| 20260503033004 | 19 | 288 | 1.6 | 11.3 | 0.00 | 0.00 | 0.00 | 58 | 1012.3 |
| 20260503032004 | 19 | 275 | 1.6 | 11.3 | 0.00 | 0.00 | 0.00 | 59 | 1012.2 |
| 20260503031004 | 19 | 270 | 0.0 | 4.8 | 0.00 | 0.00 | 0.00 | 59 | 1012.1 |
| 20260503030005 | 19 | 259 | 1.6 | 6.4 | 0.00 | 0.00 | 0.00 | 59 | 1012.3 |
| 20260503025004 | 20 | 223 | 1.6 | 6.4 | 0.00 | 0.00 | 0.00 | 59 | 1012.0 |
| 20260503024004 | 20 | 257 | 1.6 | 6.4 | 0.00 | 0.00 | 0.00 | 59 | 1012.0 |
| 20260503023005 | 20 | 291 | 1.6 | 9.7 | 0.00 | 0.00 | 0.00 | 58 | 1012.0 |
| 20260503022004 | 20 | 297 | 3.2 | 17.7 | 0.00 | 0.00 | 0.00 | 57 | 1011.9 |
| 20260503021004 | 20 | 267 | 1.6 | 16.1 | 0.00 | 0.00 | 0.00 | 56 | 1011.9 |
| 20260503015004 | 21 | 285 | 3.2 | 17.7 | 0.00 | 0.00 | 0.00 | 55 | 1011.8 |
| 20260503013004 | 21 | 252 | 1.6 | 14.5 | 0.00 | 0.00 | 0.00 | 54 | 1011.8 |
| 20260503012004 | 21 | 274 | 1.6 | 11.3 | 0.00 | 0.00 | 0.00 | 54 | 1012.1 |
| 20260503011004 | 22 | 256 | 1.6 | 19.3 | 0.00 | 0.00 | 0.00 | 54 | 1012.2 |
| 20260503010004 | 22 | 264 | 3.2 | 11.3 | 0.00 | 0.00 | 0.00 | 54 | 1012.0 |
| 20260503005004 | 22 | 284 | 3.2 | 14.5 | 0.00 | 0.00 | 0.00 | 55 | 1012.2 |
| 20260503004004 | 22 | 254 | 3.2 | 11.3 | 0.00 | 0.00 | 0.00 | 57 | 1012.2 |
| 20260503002005 | 22 | 160 | 1.6 | 8.0 | 0.00 | 0.00 | 0.00 | 57 | 1012.4 |
| 20260503001005 | 22 | 293 | 3.2 | 11.3 | 0.00 | 0.00 | 0.00 | 58 | 1012.5 |
| 20260503000004 | 22 | 3 | 3.2 | 12.9 | 0.00 | 0.00 | 0.00 | 58 | 1012.6 |
| 20260502235004 | 22 | 292 | 3.2 | 11.3 | 0.00 | 0.00 | 0.00 | 58 | 1012.6 |
| 20260502234004 | 22 | 12 | 3.2 | 9.7 | 0.00 | 0.00 | 0.00 | 58 | 1012.9 |
| 20260502233004 | 22 | 310 | 3.2 | 14.5 | 0.00 | 0.00 | 0.00 | 58 | 1013.0 |
| 20260502232004 | 22 | 324 | 3.2 | 12.9 | 0.00 | 0.00 | 0.00 | 58 | 1013.1 |
| 20260502231004 | 22 | 313 | 3.2 | 14.5 | 0.00 | 0.00 | 0.00 | 58 | 1013.3 |
| 20260502230004 | 22 | 323 | 3.2 | 14.5 | 0.00 | 0.00 | 0.00 | 57 | 1013.3 |
| 20260502224003 | 22 | 31 | 3.2 | 9.7 | 0.00 | 0.00 | 0.00 | 61 | 1013.6 |